Time;durP1;ratioP1;P1;durP2;ratioP2;P2;SDS_P1;SDS_P2;PMS_P1;PMS_P2;Temp;Humidity;BMP_temperature;BMP_pressure;BME280_temperature;BME280_humidity;BME280_pressure;Samples;Min_cycle;Max_cycle;Signal;HPM_P1;HPM_P2
2023/10/19 00:00:55;;;;;;;37.10;18.90;;;12.40;88.40;;;;;;4999932;28;20428;-69
2023/10/19 00:03:23;;;;;;;33.20;19.50;;;12.50;88.30;;;;;;4996854;28;20970;-69
2023/10/19 00:05:49;;;;;;;34.10;18.33;;;12.50;88.30;;;;;;4992021;28;21368;-69
2023/10/19 00:08:20;;;;;;;35.10;19.57;;;12.40;88.10;;;;;;4996261;28;20425;-71
2023/10/19 00:11:07;;;;;;;33.00;17.10;;;12.40;88.10;;;;;;5000139;28;20516;-70
2023/10/19 00:13:35;;;;;;;29.03;17.80;;;12.40;88.30;;;;;;4995745;28;20429;-70
2023/10/19 00:16:07;;;;;;;27.60;16.97;;;12.40;88.40;;;;;;4984074;28;20494;-71
2023/10/19 00:18:34;;;;;;;32.97;18.90;;;12.50;88.60;;;;;;4995159;28;20437;-71
2023/10/19 00:21:10;;;;;;;28.40;15.67;;;12.50;88.70;;;;;;4995624;28;20410;-69
2023/10/19 00:23:37;;;;;;;28.37;16.33;;;12.50;88.70;;;;;;4998809;28;20428;-69
2023/10/19 00:26:08;;;;;;;24.67;14.93;;;12.60;88.70;;;;;;4986408;28;20454;-70
2023/10/19 00:28:35;;;;;;;23.90;13.97;;;12.60;88.60;;;;;;4997654;28;20492;-70
2023/10/19 00:31:08;;;;;;;26.63;15.20;;;12.60;88.40;;;;;;4991937;28;20802;-70
2023/10/19 00:33:40;;;;;;;23.97;14.93;;;12.70;88.40;;;;;;4995784;28;20421;-70
2023/10/19 00:36:12;;;;;;;28.07;16.10;;;12.70;88.40;;;;;;4990927;28;20489;-70
2023/10/19 00:41:29;;;;;;;19.37;12.87;;;12.80;88.40;;;;;;4995719;28;20416;-70
2023/10/19 00:44:10;;;;;;;18.87;11.40;;;12.90;88.60;;;;;;4992122;28;20452;-69
2023/10/19 00:49:09;;;;;;;18.23;11.00;;;13.00;88.60;;;;;;5001279;28;20440;-70
2023/10/19 00:54:33;;;;;;;19.27;12.17;;;13.00;88.60;;;;;;4989869;28;20595;-70
2023/10/19 00:57:04;;;;;;;18.63;11.63;;;13.00;88.60;;;;;;4991983;28;20511;-70
2023/10/19 00:59:30;;;;;;;13.30;8.97;;;13.00;88.70;;;;;;4995364;28;20425;-70
2023/10/19 01:04:56;;;;;;;15.67;9.50;;;13.10;89.00;;;;;;4985441;28;20550;-70
2023/10/19 01:07:29;;;;;;;23.37;10.57;;;13.10;89.20;;;;;;4986950;28;20445;-71
2023/10/19 01:12:50;;;;;;;16.87;9.87;;;13.20;89.30;;;;;;4990123;28;20488;-71
2023/10/19 01:15:20;;;;;;;11.60;7.53;;;13.30;89.50;;;;;;4985826;28;20469;-71
2023/10/19 01:17:52;;;;;;;10.50;6.63;;;13.40;89.30;;;;;;4990658;28;20806;-71
2023/10/19 01:20:22;;;;;;;13.47;8.40;;;13.60;89.90;;;;;;4984313;28;20417;-70
2023/10/19 01:28:24;;;;;;;12.43;7.87;;;13.60;89.20;;;;;;4990393;28;20421;-70
2023/10/19 01:30:53;;;;;;;15.47;8.23;;;13.50;89.00;;;;;;4990312;28;20430;-70
2023/10/19 01:33:19;;;;;;;13.73;8.40;;;13.60;89.20;;;;;;4989005;28;20461;-71
2023/10/19 01:38:31;;;;;;;15.87;9.43;;;13.60;89.30;;;;;;4984026;28;20779;-71
2023/10/19 01:40:59;;;;;;;12.47;7.70;;;13.60;89.30;;;;;;4990550;28;20573;-70
2023/10/19 01:43:30;;;;;;;15.30;8.37;;;13.60;89.20;;;;;;4984266;28;20410;-71
2023/10/19 01:45:56;;;;;;;10.70;7.40;;;13.60;89.30;;;;;;4981902;28;20456;-70
2023/10/19 01:48:33;;;;;;;17.00;10.00;;;13.60;89.30;;;;;;4989828;28;20424;-69
2023/10/19 01:51:04;;;;;;;20.93;10.90;;;13.70;89.50;;;;;;4987021;28;20425;-69
2023/10/19 01:53:31;;;;;;;20.83;10.63;;;13.70;89.20;;;;;;4990180;28;20755;-69
2023/10/19 01:55:59;;;;;;;23.07;12.17;;;13.70;88.90;;;;;;4985036;28;20565;-70
2023/10/19 01:58:25;;;;;;;22.23;11.83;;;13.70;88.40;;;;;;4993167;28;20922;-70
2023/10/19 02:00:55;;;;;;;21.93;12.37;;;13.60;88.30;;;;;;4993417;28;20434;-70
2023/10/19 02:03:24;;;;;;;20.13;12.00;;;13.60;88.30;;;;;;4992624;28;20468;-69
2023/10/19 02:06:00;;;;;;;15.80;10.20;;;13.50;88.40;;;;;;4985638;28;20470;-69
2023/10/19 02:08:26;;;;;;;27.27;13.27;;;13.50;88.70;;;;;;4993169;28;20425;-69
2023/10/19 02:10:55;;;;;;;20.97;12.63;;;13.50;88.70;;;;;;4993187;28;20468;-71
2023/10/19 02:13:21;;;;;;;19.97;11.67;;;13.50;88.70;;;;;;4992634;28;20457;-70
2023/10/19 02:15:47;;;;;;;17.30;11.10;;;13.50;89.00;;;;;;4986476;28;20897;-70
2023/10/19 02:18:12;;;;;;;17.03;9.97;;;13.50;89.00;;;;;;4992964;28;20182;-69
2023/10/19 02:20:40;;;;;;;18.00;10.30;;;13.60;89.20;;;;;;4993451;28;20592;-70
2023/10/19 02:23:07;;;;;;;18.20;10.90;;;13.60;89.20;;;;;;4995242;28;20426;-70
2023/10/19 02:25:36;;;;;;;17.90;11.33;;;13.60;89.30;;;;;;4987990;28;20490;-74
2023/10/19 02:28:06;;;;;;;18.13;10.50;;;13.60;89.20;;;;;;4992231;28;20441;-69
2023/10/19 02:30:33;;;;;;;20.37;12.43;;;13.50;89.20;;;;;;4992831;28;20430;-69
2023/10/19 02:33:00;;;;;;;18.00;12.07;;;13.50;89.30;;;;;;4992512;28;20957;-70
2023/10/19 02:35:27;;;;;;;18.10;11.77;;;13.50;89.50;;;;;;4987583;28;20481;-71
2023/10/19 02:37:53;;;;;;;21.23;12.87;;;13.50;89.60;;;;;;4992703;28;20803;-69
2023/10/19 02:40:19;;;;;;;21.97;13.83;;;13.50;89.60;;;;;;4998266;28;20427;-70
2023/10/19 02:42:47;;;;;;;22.73;13.63;;;13.40;89.50;;;;;;4987963;28;20195;-70
2023/10/19 02:45:18;;;;;;;19.93;12.20;;;13.40;89.50;;;;;;4987964;28;20445;-69
2023/10/19 02:47:44;;;;;;;28.30;15.47;;;13.30;89.60;;;;;;4991657;28;20425;-70
2023/10/19 02:50:13;;;;;;;27.37;15.30;;;13.30;89.60;;;;;;4994364;28;20929;-69
2023/10/19 02:52:40;;;;;;;28.83;17.17;;;13.10;89.30;;;;;;4989199;28;20422;-69
2023/10/19 02:55:07;;;;;;;26.03;15.10;;;13.00;89.20;;;;;;4989039;28;20426;-70
2023/10/19 02:57:32;;;;;;;31.57;19.90;;;12.90;89.50;;;;;;4991647;28;20922;-70
2023/10/19 02:59:59;;;;;;;27.03;15.30;;;12.90;89.50;;;;;;4992707;28;20487;-70
2023/10/19 03:02:26;;;;;;;32.63;19.13;;;12.80;89.60;;;;;;4992372;28;20188;-69
2023/10/19 03:04:53;;;;;;;27.77;16.40;;;12.70;89.60;;;;;;4993730;28;20453;-69
2023/10/19 03:07:19;;;;;;;39.80;20.00;;;12.70;89.90;;;;;;4990172;28;20618;-69
2023/10/19 03:09:54;;;;;;;34.60;17.80;;;12.60;90.00;;;;;;4998727;28;20971;-72
2023/10/19 03:12:20;;;;;;;34.90;18.50;;;12.60;90.10;;;;;;4997041;28;20205;-70
2023/10/19 03:14:47;;;;;;;34.27;18.50;;;12.60;90.10;;;;;;4997398;28;20434;-70
2023/10/19 03:17:14;;;;;;;31.30;17.20;;;12.50;90.10;;;;;;4988091;28;20795;-70
2023/10/19 03:19:39;;;;;;;41.80;21.23;;;12.40;90.20;;;;;;4995525;28;20850;-72
2023/10/19 03:22:09;;;;;;;27.33;15.57;;;12.40;90.20;;;;;;5005171;28;20425;-71
2023/10/19 03:24:40;;;;;;;30.47;17.90;;;12.30;90.20;;;;;;4994537;28;21081;-70
2023/10/19 03:30:02;;;;;;;33.03;17.90;;;12.40;90.40;;;;;;4995212;28;20421;-71
2023/10/19 03:32:32;;;;;;;26.30;16.33;;;12.40;90.50;;;;;;4997746;28;20422;-70
2023/10/19 03:35:01;;;;;;;36.37;19.50;;;12.30;90.40;;;;;;4992555;28;20441;-69
2023/10/19 03:37:31;;;;;;;29.57;17.80;;;12.30;90.50;;;;;;4995523;28;20524;-69
2023/10/19 03:39:57;;;;;;;43.00;22.20;;;12.20;90.50;;;;;;4998863;28;20504;-69
2023/10/19 03:42:32;;;;;;;21.23;12.00;;;12.10;90.60;;;;;;4997901;28;20479;-70
2023/10/19 03:44:59;;;;;;;20.20;10.47;;;12.10;90.70;;;;;;4996596;28;20411;-70
2023/10/19 03:47:26;;;;;;;15.40;8.83;;;12.40;91.10;;;;;;4991000;28;20479;-71
2023/10/19 03:49:52;;;;;;;13.83;7.20;;;12.60;91.40;;;;;;4996039;28;21040;-70
2023/10/19 03:54:44;;;;;;;23.57;9.50;;;12.80;91.80;;;;;;4996403;28;20915;-71
2023/10/19 03:57:12;;;;;;;21.50;10.53;;;12.80;91.80;;;;;;4989622;28;20218;-70
2023/10/19 03:59:41;;;;;;;11.77;7.10;;;12.80;91.80;;;;;;4995613;28;20602;-70
2023/10/19 04:02:15;;;;;;;14.20;8.17;;;12.80;91.80;;;;;;4995467;28;20509;-69
2023/10/19 04:04:43;;;;;;;12.40;7.20;;;12.90;91.80;;;;;;4993957;28;20924;-70
2023/10/19 04:07:20;;;;;;;11.40;7.20;;;13.00;91.90;;;;;;4986360;28;20469;-71
2023/10/19 04:10:08;;;;;;;16.90;9.20;;;13.10;92.00;;;;;;5001450;28;20446;-70
2023/10/19 04:12:42;;;;;;;20.90;10.10;;;13.20;91.90;;;;;;4992907;28;20537;-71
2023/10/19 04:15:15;;;;;;;16.93;10.23;;;13.20;91.60;;;;;;4996870;28;20472;-70
2023/10/19 04:17:45;;;;;;;16.17;8.67;;;13.10;91.20;;;;;;4992754;28;20421;-70
2023/10/19 04:23:06;;;;;;;20.47;11.50;;;13.10;90.80;;;;;;4968614;28;20616;-71
2023/10/19 04:25:31;;;;;;;20.20;11.20;;;13.10;90.60;;;;;;4988759;28;20860;-71
2023/10/19 04:27:57;;;;;;;20.00;12.07;;;13.10;90.40;;;;;;4999066;28;20422;-71
2023/10/19 04:30:22;;;;;;;21.60;13.07;;;13.00;90.30;;;;;;4993644;28;20558;-70
2023/10/19 04:32:50;;;;;;;24.87;11.90;;;13.00;90.20;;;;;;4997922;28;20917;-70
2023/10/19 04:35:22;;;;;;;18.00;11.60;;;13.00;90.20;;;;;;4990042;28;20262;-70
2023/10/19 04:37:52;;;;;;;25.90;13.13;;;13.00;90.20;;;;;;4995528;28;21210;-70
2023/10/19 04:40:25;;;;;;;32.03;16.67;;;13.00;90.20;;;;;;4996420;28;21033;-70
2023/10/19 04:42:52;;;;;;;25.57;14.73;;;13.00;90.10;;;;;;4995533;28;20878;-70
2023/10/19 04:45:17;;;;;;;27.30;15.13;;;12.90;90.10;;;;;;5004015;28;20858;-70
2023/10/19 04:47:43;;;;;;;37.73;19.10;;;12.80;90.10;;;;;;4995850;28;20425;-70
2023/10/19 04:50:12;;;;;;;28.83;15.70;;;12.70;89.90;;;;;;4991555;28;20178;-69
2023/10/19 04:52:38;;;;;;;27.87;17.27;;;12.60;90.00;;;;;;4997171;28;20178;-71
2023/10/19 04:55:04;;;;;;;38.80;20.67;;;12.60;90.00;;;;;;4996005;28;21033;-72
2023/10/19 04:57:30;;;;;;;25.60;15.50;;;12.50;90.00;;;;;;4995607;28;20445;-70
2023/10/19 04:59:56;;;;;;;27.40;12.63;;;12.50;90.10;;;;;;4997832;28;20430;-71
2023/10/19 05:02:22;;;;;;;16.57;9.83;;;12.50;90.20;;;;;;4998920;28;20832;-71
2023/10/19 05:04:48;;;;;;;17.30;9.40;;;12.60;90.30;;;;;;4993779;28;20448;-69
2023/10/19 05:07:17;;;;;;;11.40;7.00;;;12.70;90.40;;;;;;4991699;28;20271;-70
2023/10/19 05:09:43;;;;;;;13.77;7.20;;;12.80;90.60;;;;;;5003114;28;20435;-71
2023/10/19 05:12:11;;;;;;;12.47;7.53;;;12.90;90.60;;;;;;4996654;28;20422;-71
2023/10/19 05:14:37;;;;;;;13.37;7.83;;;12.80;90.70;;;;;;4994983;28;20451;-71
2023/10/19 05:17:05;;;;;;;25.70;13.30;;;12.70;90.80;;;;;;4987588;28;20556;-71
2023/10/19 05:19:32;;;;;;;28.60;15.37;;;12.80;90.90;;;;;;4997394;28;20418;-70
2023/10/19 05:22:00;;;;;;;28.90;15.80;;;12.80;90.90;;;;;;4994926;28;20417;-68
2023/10/19 05:24:27;;;;;;;34.47;18.90;;;12.70;90.70;;;;;;4998022;28;20410;-69
2023/10/19 05:26:53;;;;;;;30.37;16.10;;;12.60;90.70;;;;;;4985746;28;20461;-70
2023/10/19 05:29:19;;;;;;;32.77;18.37;;;12.60;90.70;;;;;;5003139;28;20420;-69
2023/10/19 05:31:45;;;;;;;33.10;18.27;;;12.50;90.70;;;;;;4996473;28;20428;-70
2023/10/19 05:34:10;;;;;;;27.67;15.93;;;12.40;90.70;;;;;;5001127;28;20425;-70
2023/10/19 05:36:36;;;;;;;26.93;15.30;;;12.30;90.70;;;;;;4991702;28;20309;-69
2023/10/19 05:39:03;;;;;;;35.13;16.47;;;12.30;90.80;;;;;;4998240;28;20183;-68
2023/10/19 05:41:31;;;;;;;27.87;13.87;;;12.40;91.00;;;;;;5000150;28;20178;-70
2023/10/19 05:43:57;;;;;;;37.57;19.43;;;12.40;91.00;;;;;;4997955;28;20859;-69
2023/10/19 05:46:24;;;;;;;43.17;18.90;;;12.50;91.10;;;;;;4996537;28;20456;-69
2023/10/19 05:48:51;;;;;;;46.67;18.60;;;12.50;91.00;;;;;;5001519;28;20425;-70
2023/10/19 05:51:17;;;;;;;34.93;18.60;;;12.50;91.00;;;;;;4997846;28;20420;-69
2023/10/19 05:53:44;;;;;;;42.50;18.27;;;12.50;90.90;;;;;;4999407;28;20512;-70
2023/10/19 05:56:11;;;;;;;37.43;18.80;;;12.40;90.80;;;;;;4990157;28;20560;-70
2023/10/19 05:58:37;;;;;;;34.57;17.80;;;12.40;91.00;;;;;;4997862;28;20503;-70
2023/10/19 06:01:02;;;;;;;40.77;18.03;;;12.40;91.10;;;;;;5000411;28;20492;-69
2023/10/19 06:03:28;;;;;;;29.67;16.50;;;12.40;91.10;;;;;;4996638;28;20911;-69
2023/10/19 06:05:56;;;;;;;35.77;16.50;;;12.50;91.10;;;;;;4988360;28;20512;-69
2023/10/19 06:08:22;;;;;;;47.97;20.20;;;12.60;91.20;;;;;;4999252;28;20261;-69
2023/10/19 06:10:54;;;;;;;73.57;24.97;;;12.60;91.20;;;;;;5002426;28;20421;-70
2023/10/19 06:13:21;;;;;;;63.93;27.90;;;12.60;91.00;;;;;;4994947;28;20426;-70
2023/10/19 06:15:48;;;;;;;74.57;26.47;;;12.50;90.90;;;;;;4991871;28;20486;-70
2023/10/19 06:18:14;;;;;;;64.80;23.13;;;12.60;90.80;;;;;;4996564;28;20445;-71
2023/10/19 06:20:47;;;;;;;64.07;24.20;;;12.50;90.80;;;;;;4999680;28;20800;-70
2023/10/19 06:23:13;;;;;;;69.20;27.33;;;12.50;90.70;;;;;;4998741;28;20201;-71
2023/10/19 06:25:39;;;;;;;82.73;24.07;;;12.50;90.80;;;;;;4993608;28;20459;-70
2023/10/19 06:28:07;;;;;;;63.63;25.67;;;12.50;90.70;;;;;;4996500;28;20193;-70
2023/10/19 06:30:32;;;;;;;55.17;23.20;;;12.60;90.70;;;;;;5000633;28;20194;-71
2023/10/19 06:33:01;;;;;;;58.63;22.83;;;12.60;90.70;;;;;;4995117;28;20489;-70
2023/10/19 06:35:28;;;;;;;63.00;25.43;;;12.60;90.80;;;;;;4998351;28;20212;-70
2023/10/19 06:37:58;;;;;;;66.20;25.23;;;12.70;90.80;;;;;;4994610;28;20942;-71
2023/10/19 06:40:26;;;;;;;72.93;26.80;;;12.70;90.90;;;;;;4997814;28;20425;-71
2023/10/19 06:42:55;;;;;;;44.13;21.93;;;12.70;90.80;;;;;;4994928;28;20434;-70
2023/10/19 06:45:21;;;;;;;72.90;25.53;;;12.70;90.80;;;;;;4993085;28;20473;-70
2023/10/19 06:47:49;;;;;;;50.50;23.03;;;12.80;90.80;;;;;;4994850;28;20409;-69
2023/10/19 06:50:17;;;;;;;58.80;23.90;;;12.80;90.70;;;;;;4998842;28;20421;-71
2023/10/19 06:52:47;;;;;;;49.70;21.60;;;12.70;90.70;;;;;;4993302;28;20453;-69
2023/10/19 06:55:16;;;;;;;49.97;22.47;;;12.80;90.80;;;;;;4992819;28;20430;-69
2023/10/19 06:57:48;;;;;;;44.80;18.13;;;12.90;90.80;;;;;;4995239;28;20430;-70
2023/10/19 07:00:21;;;;;;;50.13;19.70;;;13.00;90.70;;;;;;4998559;28;20464;-69
2023/10/19 07:02:50;;;;;;;42.17;18.20;;;13.10;90.60;;;;;;4998115;28;20932;-71
2023/10/19 07:05:21;;;;;;;49.90;19.30;;;13.10;90.40;;;;;;4993590;28;20453;-70
2023/10/19 07:07:48;;;;;;;41.13;18.30;;;13.20;89.90;;;;;;4994731;28;20791;-72
2023/10/19 07:10:14;;;;;;;46.30;19.93;;;13.20;89.50;;;;;;5001377;28;20433;-72
2023/10/19 07:12:43;;;;;;;35.80;19.00;;;13.20;89.20;;;;;;5001257;28;20456;-70
2023/10/19 07:15:13;;;;;;;47.40;21.07;;;13.10;89.00;;;;;;4991816;28;20425;-70
2023/10/19 07:17:43;;;;;;;31.40;18.03;;;13.10;89.20;;;;;;4994865;28;20422;-69
2023/10/19 07:20:25;;;;;;;33.30;16.20;;;13.10;89.20;;;;;;4994861;28;20432;-72
2023/10/19 07:22:51;;;;;;;40.20;19.17;;;13.10;89.30;;;;;;4999167;28;20413;-70
2023/10/19 07:25:20;;;;;;;37.43;17.70;;;13.20;89.50;;;;;;4989854;28;20813;-71
2023/10/19 07:27:47;;;;;;;30.70;16.33;;;13.20;89.30;;;;;;4994666;28;20421;-70
2023/10/19 07:30:15;;;;;;;40.03;17.80;;;13.30;89.50;;;;;;4997501;28;20516;-72
2023/10/19 07:32:40;;;;;;;33.23;18.17;;;13.30;89.20;;;;;;4995260;28;20434;-71
2023/10/19 07:35:06;;;;;;;32.30;17.77;;;13.40;89.20;;;;;;4994272;28;20438;-73
2023/10/19 07:37:32;;;;;;;33.70;17.50;;;13.50;89.20;;;;;;4993532;28;20208;-70
2023/10/19 07:39:58;;;;;;;38.67;17.20;;;13.60;89.00;;;;;;5001148;28;20410;-71
2023/10/19 07:42:25;;;;;;;31.33;17.97;;;13.70;88.70;;;;;;4995364;28;20778;-70
2023/10/19 07:44:51;;;;;;;35.77;18.47;;;13.80;88.40;;;;;;5001011;28;20566;-72
2023/10/19 07:47:16;;;;;;;33.37;18.33;;;13.90;88.30;;;;;;4992508;28;20463;-70
2023/10/19 07:49:43;;;;;;;33.47;17.23;;;14.00;88.00;;;;;;4999631;28;20554;-71
2023/10/19 07:52:10;;;;;;;28.70;16.43;;;14.00;87.80;;;;;;4992840;28;20179;-70
2023/10/19 07:54:37;;;;;;;32.83;16.70;;;14.20;87.80;;;;;;4994627;28;20434;-71
2023/10/19 07:57:05;;;;;;;32.30;17.23;;;14.20;87.60;;;;;;4989431;28;20482;-70
2023/10/19 07:59:34;;;;;;;32.90;17.00;;;14.30;87.60;;;;;;4998682;28;20485;-70
2023/10/19 08:02:04;;;;;;;35.93;18.80;;;14.40;87.60;;;;;;4992832;28;20950;-70
2023/10/19 08:04:30;;;;;;;28.23;16.57;;;14.50;87.40;;;;;;4963424;28;1074991;-71
2023/10/19 08:06:57;;;;;;;28.43;16.17;;;14.50;87.40;;;;;;4985399;28;20691;-70
2023/10/19 08:09:24;;;;;;;34.77;17.00;;;14.50;87.30;;;;;;4999062;28;20430;-70
2023/10/19 08:11:53;;;;;;;28.03;15.93;;;14.50;87.10;;;;;;4994385;28;20433;-70
2023/10/19 08:14:19;;;;;;;33.60;15.90;;;14.60;87.00;;;;;;4997527;28;20428;-72
2023/10/19 08:16:45;;;;;;;49.03;20.00;;;14.60;86.80;;;;;;4984246;28;20478;-72
2023/10/19 08:19:12;;;;;;;34.10;18.90;;;14.50;86.20;;;;;;5000055;28;20438;-70
2023/10/19 08:21:37;;;;;;;41.53;19.90;;;14.40;85.70;;;;;;4996410;28;20185;-72
2023/10/19 08:24:04;;;;;;;28.70;16.33;;;14.30;85.90;;;;;;4997890;28;20513;-72
2023/10/19 08:26:31;;;;;;;35.40;17.97;;;14.30;86.20;;;;;;4988839;28;20205;-71
2023/10/19 08:28:58;;;;;;;36.60;18.50;;;14.40;86.50;;;;;;4997038;28;20923;-71
2023/10/19 08:31:24;;;;;;;34.60;16.70;;;14.60;86.60;;;;;;5000228;28;20414;-71
2023/10/19 08:33:50;;;;;;;33.00;18.70;;;14.80;86.00;;;;;;4994755;28;20513;-70
2023/10/19 08:36:19;;;;;;;25.03;15.57;;;14.90;85.50;;;;;;4988834;28;20243;-71
2023/10/19 08:38:46;;;;;;;32.23;18.20;;;15.00;85.20;;;;;;4993730;28;20492;-73
2023/10/19 08:41:12;;;;;;;28.83;16.33;;;15.10;85.20;;;;;;4996048;28;20457;-71
2023/10/19 08:43:39;;;;;;;34.03;17.07;;;15.30;85.00;;;;;;4994371;28;21054;-70
2023/10/19 08:46:06;;;;;;;33.67;17.70;;;15.30;85.00;;;;;;4997263;28;21268;-72
2023/10/19 08:48:36;;;;;;;31.20;16.33;;;15.50;84.90;;;;;;4995188;28;20462;-71
2023/10/19 08:51:09;;;;;;;34.50;16.97;;;15.50;84.60;;;;;;4998625;28;20693;-71
2023/10/19 08:53:40;;;;;;;28.00;17.00;;;15.60;84.30;;;;;;4992274;28;20453;-72
2023/10/19 08:56:07;;;;;;;28.23;16.43;;;15.60;83.70;;;;;;4994226;28;20485;-69
2023/10/19 08:58:33;;;;;;;30.00;18.13;;;15.60;83.60;;;;;;4993741;28;20452;-71
2023/10/19 09:01:06;;;;;;;29.03;15.20;;;15.60;83.70;;;;;;4996910;28;20418;-73
2023/10/19 09:03:32;;;;;;;30.03;17.07;;;15.70;83.80;;;;;;4993128;28;20800;-70
2023/10/19 09:06:01;;;;;;;26.80;14.87;;;15.80;83.80;;;;;;4996242;28;20482;-71
2023/10/19 09:08:38;;;;;;;25.50;15.67;;;15.90;84.00;;;;;;4996633;28;20418;-71
2023/10/19 09:11:09;;;;;;;31.17;15.87;;;16.10;83.70;;;;;;4999891;28;20449;-72
2023/10/19 09:13:55;;;;;;;31.33;16.30;;;16.20;83.40;;;;;;5000893;28;20440;-71
2023/10/19 09:16:21;;;;;;;24.57;13.20;;;16.30;83.00;;;;;;4987508;28;20495;-72
2023/10/19 09:18:51;;;;;;;22.13;13.57;;;16.50;82.50;;;;;;5004575;28;20418;-72
2023/10/19 09:21:25;;;;;;;24.30;14.63;;;16.80;81.80;;;;;;5003791;28;20937;-72
2023/10/19 09:23:55;;;;;;;22.27;12.23;;;17.00;81.50;;;;;;5005547;28;20837;-71
2023/10/19 09:26:22;;;;;;;23.27;13.83;;;17.10;80.80;;;;;;4992314;28;20471;-71
2023/10/19 09:28:51;;;;;;;27.43;13.93;;;17.30;80.50;;;;;;4999481;28;20478;-70
2023/10/19 09:31:18;;;;;;;15.57;10.37;;;17.30;80.60;;;;;;4998986;28;20521;-71
2023/10/19 09:33:45;;;;;;;21.60;13.67;;;17.50;79.90;;;;;;5000075;28;20449;-72
2023/10/19 09:36:16;;;;;;;25.70;12.57;;;17.60;79.70;;;;;;4993458;28;20479;-71
2023/10/19 09:38:51;;;;;;;21.10;11.47;;;17.60;80.20;;;;;;4999121;28;20430;-71
2023/10/19 09:41:21;;;;;;;15.80;11.27;;;17.70;79.50;;;;;;4998600;28;20424;-72
2023/10/19 09:43:49;;;;;;;18.43;11.00;;;17.80;79.50;;;;;;4998725;28;20430;-70
2023/10/19 09:46:23;;;;;;;21.00;9.03;;;17.80;79.50;;;;;;4992678;28;20463;-70
2023/10/19 09:48:50;;;;;;;12.77;8.17;;;17.90;79.60;;;;;;4998726;28;20430;-70
2023/10/19 09:51:17;;;;;;;11.37;6.30;;;18.00;79.50;;;;;;4997440;28;20434;-72
2023/10/19 09:53:48;;;;;;;10.70;5.83;;;18.20;77.70;;;;;;4998411;28;20420;-71
2023/10/19 09:56:21;;;;;;;11.70;6.80;;;18.30;77.70;;;;;;4990436;28;20487;-70
2023/10/19 09:58:50;;;;;;;15.93;7.70;;;18.40;77.70;;;;;;4997224;28;20856;-70
2023/10/19 10:01:18;;;;;;;9.60;5.03;;;18.50;77.40;;;;;;5002285;28;20804;-71
2023/10/19 10:03:52;;;;;;;9.43;4.70;;;18.40;77.10;;;;;;4994320;28;21080;-71
2023/10/19 10:06:28;;;;;;;4.63;2.87;;;18.50;75.40;;;;;;4993364;28;20474;-71
2023/10/19 10:08:54;;;;;;;9.53;4.30;;;18.50;75.50;;;;;;4994888;28;20448;-72
2023/10/19 10:11:28;;;;;;;5.00;3.43;;;18.50;75.20;;;;;;5004465;28;20635;-71
2023/10/19 10:13:56;;;;;;;6.63;3.90;;;18.50;75.20;;;;;;5004487;28;20475;-71
2023/10/19 10:16:24;;;;;;;6.33;4.30;;;18.60;75.50;;;;;;4990042;28;20512;-71
2023/10/19 10:18:53;;;;;;;11.03;4.50;;;18.50;75.70;;;;;;4999393;28;20471;-72
2023/10/19 10:21:21;;;;;;;4.93;3.53;;;18.60;75.50;;;;;;4998531;28;20464;-70
2023/10/19 10:23:52;;;;;;;5.17;4.03;;;18.60;75.70;;;;;;4997767;28;20429;-71
2023/10/19 10:26:19;;;;;;;7.03;4.13;;;18.60;75.80;;;;;;4992183;28;20446;-72
2023/10/19 10:28:49;;;;;;;8.50;4.40;;;18.70;76.20;;;;;;5001393;28;20459;-72
2023/10/19 10:31:22;;;;;;;7.77;4.47;;;18.80;75.80;;;;;;4995588;28;20468;-72
2023/10/19 10:33:51;;;;;;;8.53;3.63;;;18.80;76.10;;;;;;4998750;28;20442;-71
2023/10/19 10:36:19;;;;;;;5.90;3.67;;;18.90;75.70;;;;;;4993893;28;20547;-70
2023/10/19 10:38:51;;;;;;;8.20;4.20;;;19.00;75.20;;;;;;4998150;28;20437;-71
2023/10/19 10:41:20;;;;;;;5.00;4.20;;;19.00;75.40;;;;;;4999205;28;20532;-71
2023/10/19 10:43:56;;;;;;;7.60;3.47;;;18.90;75.40;;;;;;5001197;28;20827;-71
2023/10/19 10:46:23;;;;;;;5.27;3.17;;;18.80;75.70;;;;;;4990597;28;20865;-71
2023/10/19 10:48:49;;;;;;;4.93;3.37;;;18.80;75.70;;;;;;4998448;28;20485;-71
2023/10/19 10:51:29;;;;;;;5.70;3.30;;;18.80;75.80;;;;;;4997324;28;20424;-71
2023/10/19 10:53:56;;;;;;;5.13;3.37;;;18.80;75.70;;;;;;4999374;28;20419;-72
2023/10/19 10:56:23;;;;;;;10.50;3.50;;;18.70;76.10;;;;;;4988279;28;20475;-71
2023/10/19 10:58:50;;;;;;;7.63;3.70;;;18.40;76.50;;;;;;4998220;28;20906;-72
2023/10/19 11:01:27;;;;;;;7.33;4.10;;;18.40;77.10;;;;;;4997420;28;20515;-71
2023/10/19 11:04:09;;;;;;;5.20;3.17;;;18.40;77.10;;;;;;4998140;28;20441;-70
2023/10/19 11:06:47;;;;;;;10.17;4.37;;;18.20;77.80;;;;;;4990216;28;20473;-71
2023/10/19 11:09:14;;;;;;;7.17;4.30;;;18.10;78.30;;;;;;4997156;28;20446;-71
2023/10/19 11:11:40;;;;;;;9.43;4.70;;;18.00;78.70;;;;;;5002625;28;20499;-71
2023/10/19 11:14:11;;;;;;;7.67;3.70;;;18.10;78.90;;;;;;4999997;28;20423;-70
2023/10/19 11:16:39;;;;;;;4.77;3.50;;;18.10;79.30;;;;;;4994785;28;21002;-72
2023/10/19 11:19:04;;;;;;;8.50;4.83;;;18.00;79.60;;;;;;4999995;28;20519;-70
2023/10/19 11:21:30;;;;;;;7.30;4.53;;;17.90;80.20;;;;;;5002859;28;20416;-70
2023/10/19 11:23:56;;;;;;;7.87;4.20;;;17.70;80.60;;;;;;4995535;28;20241;-71
2023/10/19 11:26:24;;;;;;;9.10;4.53;;;17.60;81.10;;;;;;4993147;28;20219;-70
2023/10/19 11:29:08;;;;;;;6.73;4.50;;;17.50;81.40;;;;;;5000637;28;20422;-71
2023/10/19 11:31:39;;;;;;;8.93;3.37;;;17.40;82.10;;;;;;4998587;28;20429;-69
2023/10/19 11:34:05;;;;;;;10.80;4.73;;;17.30;82.40;;;;;;5000790;28;20937;-70
2023/10/19 11:36:31;;;;;;;6.43;3.87;;;17.20;82.70;;;;;;4995798;28;20532;-70
2023/10/19 11:38:57;;;;;;;6.93;4.20;;;17.10;83.10;;;;;;4998655;28;20434;-70
2023/10/19 11:41:23;;;;;;;9.03;4.43;;;17.00;83.60;;;;;;4999611;28;20196;-69
2023/10/19 11:43:49;;;;;;;5.23;3.40;;;16.90;84.40;;;;;;4996322;28;20535;-71
2023/10/19 11:46:17;;;;;;;7.93;4.50;;;16.80;84.70;;;;;;4989147;28;20214;-71
2023/10/19 11:48:43;;;;;;;4.40;3.10;;;16.70;85.00;;;;;;4999817;28;20416;-70
2023/10/19 11:51:10;;;;;;;6.40;3.80;;;16.60;85.30;;;;;;4994971;28;20536;-70
2023/10/19 11:53:38;;;;;;;7.20;3.30;;;16.60;85.50;;;;;;4997901;28;20270;-70
2023/10/19 11:56:05;;;;;;;4.57;2.67;;;16.60;85.70;;;;;;4987146;28;20473;-70
2023/10/19 11:58:34;;;;;;;5.57;3.10;;;16.60;85.70;;;;;;4997302;28;20449;-70
2023/10/19 12:01:03;;;;;;;5.73;3.13;;;16.60;85.90;;;;;;4993965;28;20421;-71
2023/10/19 12:03:28;;;;;;;6.67;4.10;;;16.70;85.70;;;;;;4996984;28;20426;-71
2023/10/19 12:05:55;;;;;;;7.97;4.90;;;16.70;85.60;;;;;;4986247;28;20486;-71
2023/10/19 12:08:20;;;;;;;10.40;4.83;;;16.70;85.90;;;;;;4999073;28;20186;-70
2023/10/19 12:10:46;;;;;;;4.40;3.50;;;16.70;86.00;;;;;;4991584;28;20499;-70
2023/10/19 12:13:11;;;;;;;6.50;3.97;;;16.80;86.20;;;;;;4993753;28;20256;-70
2023/10/19 12:15:37;;;;;;;5.40;3.70;;;16.80;86.30;;;;;;4988411;28;20226;-70
2023/10/19 12:18:03;;;;;;;5.03;3.17;;;16.80;86.50;;;;;;4997668;28;20189;-71
2023/10/19 12:20:32;;;;;;;5.70;3.60;;;16.90;86.60;;;;;;4992908;28;20179;-70
2023/10/19 12:22:58;;;;;;;5.47;3.40;;;16.90;86.60;;;;;;4994551;28;20175;-70
2023/10/19 12:25:31;;;;;;;6.07;3.30;;;16.90;86.90;;;;;;4988522;28;20469;-70
2023/10/19 12:27:58;;;;;;;4.70;2.90;;;17.00;87.00;;;;;;4993231;28;20488;-70
2023/10/19 12:30:26;;;;;;;4.57;3.60;;;16.90;87.00;;;;;;4997222;28;20436;-71
2023/10/19 12:32:52;;;;;;;6.20;3.57;;;16.90;86.80;;;;;;4997106;28;20434;-70
2023/10/19 12:35:30;;;;;;;6.20;3.93;;;16.80;86.80;;;;;;4988745;28;20440;-70
2023/10/19 12:37:55;;;;;;;6.10;4.10;;;16.90;87.00;;;;;;4995476;28;20435;-72
2023/10/19 12:40:28;;;;;;;7.67;4.37;;;16.80;86.80;;;;;;4994733;28;20421;-71
2023/10/19 12:42:54;;;;;;;8.10;5.67;;;16.70;87.00;;;;;;4994164;28;20733;-70
2023/10/19 12:45:24;;;;;;;10.37;5.90;;;16.80;87.00;;;;;;4993585;28;21557;-70
2023/10/19 12:47:51;;;;;;;14.53;6.77;;;16.80;87.30;;;;;;4992956;28;20937;-70
2023/10/19 12:50:24;;;;;;;6.57;5.33;;;16.80;87.30;;;;;;5002153;28;20532;-70
2023/10/19 12:52:49;;;;;;;8.57;5.90;;;16.80;87.40;;;;;;4988338;28;20429;-70
2023/10/19 12:55:16;;;;;;;10.73;7.40;;;16.80;87.60;;;;;;4996159;28;20459;-72
2023/10/19 12:57:42;;;;;;;9.90;6.40;;;16.70;87.40;;;;;;4991923;28;20321;-70
2023/10/19 13:00:23;;;;;;;13.10;6.23;;;16.70;87.40;;;;;;4997224;28;20973;-70
2023/10/19 13:02:50;;;;;;;9.67;5.57;;;16.50;87.70;;;;;;4994360;28;20371;-71
2023/10/19 13:05:18;;;;;;;9.63;6.23;;;16.40;88.10;;;;;;4997965;28;20993;-71
2023/10/19 13:07:44;;;;;;;9.93;7.67;;;16.40;88.30;;;;;;4995842;28;20420;-70
2023/10/19 13:10:11;;;;;;;11.13;7.40;;;16.30;88.60;;;;;;4999136;28;20422;-71